createdAt,value
2023-05-25T00:00:38.294Z,99928.38
2023-05-25T00:03:45.647Z,99927.66
2023-05-25T00:06:52.912Z,99933.50
2023-05-25T00:09:58.419Z,99941.76
2023-05-25T00:13:04.918Z,99943.11
2023-05-25T00:16:10.422Z,99940.48
2023-05-25T00:19:12.692Z,99944.62
2023-05-25T00:22:11.717Z,99940.25
2023-05-25T00:25:19.475Z,99926.67
2023-05-25T00:28:26.572Z,99930.49
2023-05-25T00:31:33.506Z,99931.44
2023-05-25T00:34:40.347Z,99925.32
2023-05-25T00:37:39.765Z,99924.25
2023-05-25T00:40:45.568Z,99923.41
2023-05-25T00:43:53.597Z,99918.67
2023-05-25T00:47:03.872Z,99916.26
2023-05-25T00:50:07.882Z,99907.28
2023-05-25T00:53:13.353Z,99914.88
2023-05-25T00:56:23.233Z,99919.83
2023-05-25T00:59:31.609Z,99913.69
2023-05-25T01:02:38.319Z,99912.59
2023-05-25T01:05:46.014Z,99908.83
2023-05-25T01:08:52.452Z,99913.61
2023-05-25T01:12:00.982Z,99913.95
2023-05-25T01:15:00.810Z,99914.48
2023-05-25T01:18:06.686Z,99913.56
2023-05-25T01:21:36.913Z,99910.55
2023-05-25T01:24:55.518Z,99907.41
2023-05-25T01:28:32.517Z,99906.43
2023-05-25T01:31:38.350Z,99912.93
2023-05-25T01:34:46.010Z,99910.55
2023-05-25T01:37:53.123Z,99911.48
2023-05-25T01:40:59.938Z,99906.92
2023-05-25T01:44:06.076Z,99911.47
2023-05-25T01:47:22.506Z,99907.23
2023-05-25T01:50:41.533Z,99912.07
2023-05-25T01:54:00.541Z,99911.52
2023-05-25T01:57:05.942Z,99908.58
2023-05-25T02:00:11.993Z,99907.97
2023-05-25T02:03:20.144Z,99910.95
2023-05-25T02:06:26.499Z,99906.72
2023-05-25T02:09:33.583Z,99914.16
2023-05-25T02:12:38.519Z,99917.83
2023-05-25T02:15:46.486Z,99914.09
2023-05-25T02:18:53.567Z,99920.13
2023-05-25T02:21:59.453Z,99921.16
2023-05-25T02:25:05.639Z,99923.69
2023-05-25T02:28:12.460Z,99924.69
2023-05-25T02:31:18.793Z,99929.02
2023-05-25T02:34:24.995Z,99927.84
2023-05-25T02:37:30.450Z,99936.44
2023-05-25T02:40:35.685Z,99945.03
2023-05-25T02:43:40.852Z,99944.88
2023-05-25T02:46:47.009Z,99940.44
2023-05-25T02:49:52.245Z,99945.97
2023-05-25T02:52:58.468Z,99940.84
2023-05-25T02:56:05.499Z,99943.09
2023-05-25T02:59:11.603Z,99948.59
2023-05-25T03:02:11.143Z,99953.90
2023-05-25T03:05:16.164Z,99950.77
2023-05-25T03:08:22.028Z,99957.27
2023-05-25T03:11:30.797Z,99951.84
2023-05-25T03:14:36.645Z,99955.53
2023-05-25T03:17:43.257Z,99953.50
2023-05-25T03:20:49.033Z,99950.91
2023-05-25T03:23:55.772Z,99967.58
2023-05-25T03:27:01.464Z,99960.53
2023-05-25T03:30:07.365Z,99958.02
2023-05-25T03:33:13.010Z,99964.05
2023-05-25T03:36:24.391Z,99964.22
2023-05-25T03:39:30.804Z,99956.48
2023-05-25T03:42:36.161Z,99962.00
2023-05-25T03:45:41.862Z,99959.84
2023-05-25T03:48:47.947Z,99955.45
2023-05-25T03:51:55.724Z,99946.88
2023-05-25T03:55:02.029Z,99950.67
2023-05-25T03:58:09.782Z,99942.55
2023-05-25T04:01:17.097Z,99941.11
2023-05-25T04:04:23.893Z,99944.89
2023-05-25T04:07:30.930Z,99943.50
2023-05-25T04:10:37.534Z,99954.08
2023-05-25T04:13:43.484Z,99955.84
2023-05-25T04:16:49.921Z,99960.50
2023-05-25T04:19:57.270Z,99959.33
2023-05-25T04:22:56.938Z,99962.11
2023-05-25T04:26:04.937Z,99965.73
2023-05-25T04:29:13.997Z,99963.28
2023-05-25T04:32:25.542Z,99969.91
2023-05-25T04:35:35.612Z,99972.52
2023-05-25T04:38:41.619Z,99976.75
2023-05-25T04:41:47.079Z,99970.67
2023-05-25T04:44:55.345Z,99968.05
2023-05-25T04:48:04.760Z,99972.60
2023-05-25T04:51:11.097Z,99981.16
2023-05-25T04:54:16.894Z,99978.91
2023-05-25T04:57:22.696Z,99979.22
2023-05-25T05:00:29.115Z,99976.28
2023-05-25T05:03:34.405Z,99981.41
2023-05-25T05:06:40.067Z,99980.89
2023-05-25T05:09:48.770Z,99988.46
2023-05-25T05:12:55.337Z,99986.80
2023-05-25T05:16:04.181Z,99999.91
2023-05-25T05:19:10.844Z,99997.42
2023-05-25T05:22:16.370Z,100004.07
2023-05-25T05:25:23.163Z,100001.48
2023-05-25T05:28:28.542Z,100002.84
2023-05-25T05:31:35.713Z,100000.88
2023-05-25T05:34:42.208Z,99995.13
2023-05-25T05:37:54.472Z,100001.84
2023-05-25T05:41:01.344Z,99999.39
2023-05-25T05:44:07.635Z,100001.06
2023-05-25T05:47:13.956Z,99999.69
2023-05-25T05:50:20.671Z,100001.66
2023-05-25T05:53:26.004Z,100002.47
2023-05-25T05:56:36.866Z,99999.35
2023-05-25T05:59:42.068Z,99998.77
2023-05-25T06:02:47.720Z,99995.06
2023-05-25T06:05:55.290Z,99991.32
2023-05-25T06:09:01.163Z,99997.50
2023-05-25T06:12:05.498Z,99991.47
2023-05-25T06:15:11.643Z,99993.02
2023-05-25T06:18:19.703Z,99995.36
2023-05-25T06:21:25.194Z,99991.93
2023-05-25T06:24:30.575Z,99995.87
2023-05-25T06:27:36.593Z,99995.00
2023-05-25T06:30:44.050Z,99995.91
2023-05-25T06:33:50.470Z,99999.47
2023-05-25T06:36:56.424Z,99998.91
2023-05-25T06:40:01.340Z,99999.36
2023-05-25T06:43:06.732Z,100005.94
2023-05-25T06:50:24.894Z,99998.10
2023-05-25T06:53:29.677Z,100003.78
2023-05-25T06:56:35.837Z,100003.42
2023-05-25T06:59:40.868Z,100002.27
2023-05-25T07:02:46.078Z,100001.38
2023-05-25T07:05:51.609Z,100003.72
2023-05-25T07:08:58.501Z,100001.95
2023-05-25T07:11:57.452Z,99999.97
2023-05-25T07:15:03.739Z,100003.30
2023-05-25T07:18:08.963Z,100014.28
2023-05-25T07:21:13.852Z,100010.48
2023-05-25T07:24:20.044Z,100008.92
2023-05-25T07:27:28.234Z,100012.86
2023-05-25T07:30:34.262Z,100015.00
2023-05-25T07:33:39.966Z,100013.50
2023-05-25T07:36:46.398Z,100012.93
2023-05-25T07:39:52.014Z,100011.86
2023-05-25T07:42:58.142Z,100016.23
2023-05-25T07:46:03.635Z,100014.64
2023-05-25T07:49:09.885Z,100009.03
2023-05-25T07:52:14.993Z,100005.18
2023-05-25T07:55:25.621Z,100003.77
2023-05-25T07:58:31.148Z,100004.30
2023-05-25T08:01:39.567Z,99996.19
2023-05-25T08:04:46.606Z,99995.13
2023-05-25T08:07:51.714Z,99994.66
2023-05-25T08:11:00.047Z,100006.75
2023-05-25T08:14:05.076Z,99995.91
2023-05-25T08:17:11.328Z,99984.55
2023-05-25T08:20:17.477Z,99990.54
2023-05-25T08:23:22.367Z,99992.26
2023-05-25T08:26:38.384Z,99993.69
2023-05-25T08:29:33.426Z,99992.26
2023-05-25T08:32:39.399Z,99987.52
2023-05-25T08:35:47.588Z,99993.72
2023-05-25T08:38:53.271Z,99995.16
2023-05-25T08:42:01.446Z,99996.55
2023-05-25T08:45:12.455Z,99998.56
2023-05-25T08:48:35.568Z,100012.84
2023-05-25T08:51:26.441Z,100010.88
2023-05-25T08:54:33.738Z,100019.55
2023-05-25T08:58:05.023Z,100028.23
2023-05-25T09:01:14.769Z,100024.06
2023-05-25T09:04:21.482Z,100022.36
2023-05-25T09:07:27.101Z,100013.14
2023-05-25T09:10:35.466Z,100002.77
2023-05-25T09:13:41.563Z,100003.60
2023-05-25T09:16:47.443Z,99995.23
2023-05-25T09:19:53.478Z,100003.02
2023-05-25T09:23:03.104Z,100015.09
2023-05-25T09:37:38.979Z,99987.09
2023-05-25T09:40:49.418Z,99980.13
2023-05-25T09:44:06.658Z,99975.05
2023-05-25T09:47:01.643Z,99978.42
2023-05-25T09:50:08.594Z,99989.59
2023-05-25T09:53:15.329Z,99996.03
2023-05-25T09:56:21.644Z,100004.72
2023-05-25T09:59:28.259Z,100002.14
2023-05-25T10:02:34.900Z,100004.94
2023-05-25T10:05:39.872Z,100001.20
2023-05-25T10:08:45.766Z,99998.50
2023-05-25T10:11:51.455Z,99999.34
2023-05-25T10:14:56.974Z,99995.98
2023-05-25T10:18:09.478Z,99995.13
2023-05-25T10:21:18.810Z,99983.70
2023-05-25T10:24:32.164Z,99984.55
2023-05-25T10:27:39.171Z,99994.90
2023-05-25T10:30:44.493Z,99994.63
2023-05-25T10:33:52.501Z,99996.58
2023-05-25T10:36:58.381Z,99997.98
2023-05-25T10:40:04.838Z,99999.94
2023-05-25T10:43:12.075Z,99992.43
2023-05-25T10:46:21.442Z,99991.27
2023-05-25T10:49:27.597Z,99986.52
2023-05-25T10:52:34.445Z,99985.97
2023-05-25T10:55:39.470Z,99979.81
2023-05-25T10:58:46.947Z,99970.31
2023-05-25T11:02:04.176Z,99968.08
2023-05-25T11:05:45.726Z,99961.34
2023-05-25T11:09:13.474Z,99963.84
2023-05-25T11:12:20.211Z,99948.11
2023-05-25T11:15:29.351Z,99940.53
2023-05-25T11:18:35.419Z,99928.11
2023-05-25T11:21:56.856Z,99932.98
2023-05-25T11:25:07.506Z,99944.39
2023-05-25T11:28:21.004Z,99949.54
2023-05-25T11:31:30.649Z,99963.16
2023-05-25T11:34:37.255Z,99973.73
2023-05-25T11:40:49.236Z,99989.52
2023-05-25T11:43:56.171Z,99993.89
2023-05-25T11:47:03.681Z,99993.06
2023-05-25T11:50:12.730Z,100000.64
2023-05-25T11:53:21.890Z,100004.66
2023-05-25T11:56:35.584Z,100001.28
2023-05-25T11:59:37.218Z,99996.70
2023-05-25T12:02:45.220Z,99990.44
2023-05-25T12:05:54.588Z,99990.09
2023-05-25T12:08:59.577Z,99983.87
2023-05-25T12:12:05.833Z,99970.34
2023-05-25T12:15:11.255Z,99963.06
2023-05-25T12:18:09.372Z,99950.91
2023-05-25T12:21:16.137Z,99950.14
2023-05-25T12:24:16.823Z,99944.77
2023-05-25T12:27:12.131Z,99943.14
2023-05-25T12:30:18.619Z,99944.55
2023-05-25T12:36:26.647Z,99938.98
2023-05-25T12:39:47.149Z,99936.45
2023-05-25T12:42:54.522Z,99921.77
2023-05-25T12:46:01.366Z,99919.41
2023-05-25T12:49:05.869Z,99918.90
2023-05-25T12:52:15.446Z,99923.11
2023-05-25T12:55:49.090Z,99914.77
2023-05-25T12:58:55.599Z,99914.70
2023-05-25T13:02:01.509Z,99922.57
2023-05-25T13:05:07.933Z,99918.70
2023-05-25T13:08:14.588Z,99904.38
2023-05-25T13:11:21.428Z,99906.72
2023-05-25T13:14:28.902Z,99904.91
2023-05-25T13:17:35.363Z,99905.81
2023-05-25T13:20:41.608Z,99905.77
2023-05-25T13:23:48.930Z,99904.22
2023-05-25T13:26:55.847Z,99908.30
2023-05-25T13:30:02.701Z,99911.57
2023-05-25T13:33:08.054Z,99906.99
2023-05-25T13:36:15.492Z,99915.60
2023-05-25T13:39:21.737Z,99916.63
2023-05-25T13:42:26.574Z,99923.89
2023-05-25T13:45:32.430Z,99922.25
2023-05-25T13:48:38.534Z,99922.39
2023-05-25T13:51:45.535Z,99927.80
2023-05-25T13:54:51.500Z,99933.34
2023-05-25T13:57:58.560Z,99939.43
2023-05-25T14:01:03.872Z,99937.12
2023-05-25T14:04:09.254Z,99935.14
2023-05-25T14:07:17.376Z,99935.79
2023-05-25T14:10:17.702Z,99932.70
2023-05-25T14:13:23.059Z,99920.92
2023-05-25T14:16:28.982Z,99922.36
2023-05-25T14:19:34.011Z,99920.95
2023-05-25T14:22:39.584Z,99929.69
2023-05-25T14:25:45.505Z,99922.02
2023-05-25T14:28:50.943Z,99922.66
2023-05-25T14:31:57.913Z,99924.78
2023-05-25T14:35:03.336Z,99922.19
2023-05-25T14:38:09.337Z,99918.17
2023-05-25T14:41:16.094Z,99907.59
2023-05-25T14:44:22.218Z,99908.94
2023-05-25T14:47:28.059Z,99913.42
2023-05-25T14:50:34.029Z,99914.63
2023-05-25T14:53:39.742Z,99920.19
2023-05-25T14:56:46.948Z,99919.34
2023-05-25T14:59:48.224Z,99921.17
2023-05-25T15:02:54.909Z,99906.57
2023-05-25T15:06:01.695Z,99903.88
2023-05-25T15:09:07.225Z,99898.91
2023-05-25T15:12:14.601Z,99892.14
2023-05-25T15:15:19.824Z,99879.31
2023-05-25T15:18:18.481Z,99879.11
2023-05-25T15:21:23.817Z,99883.61
2023-05-25T15:24:29.151Z,99888.78
2023-05-25T15:27:34.406Z,99886.55
2023-05-25T15:30:41.450Z,99884.85
2023-05-25T15:33:53.759Z,99878.92
2023-05-25T15:36:55.369Z,99880.22
2023-05-25T15:40:01.371Z,99884.38
2023-05-25T15:43:08.159Z,99877.26
2023-05-25T15:46:14.806Z,99872.98
2023-05-25T15:49:20.237Z,99865.92
2023-05-25T15:52:25.835Z,99859.12
2023-05-25T15:55:31.139Z,99850.88
2023-05-25T15:58:39.675Z,99841.16
2023-05-25T16:01:45.682Z,99834.16
2023-05-25T16:04:51.197Z,99821.66
2023-05-25T16:07:57.705Z,99821.38
2023-05-25T16:11:03.612Z,99823.32
2023-05-25T16:14:12.109Z,99820.89
2023-05-25T16:17:18.608Z,99818.95
2023-05-25T16:20:25.107Z,99816.70
2023-05-25T16:23:31.739Z,99820.66
2023-05-25T16:26:37.277Z,99833.27
2023-05-25T16:29:43.735Z,99837.45
2023-05-25T16:32:49.514Z,99851.70
2023-05-25T16:35:55.517Z,99855.64
2023-05-25T16:39:01.784Z,99858.45
2023-05-25T16:42:07.389Z,99869.34
2023-05-25T16:45:13.704Z,99874.08
2023-05-25T16:48:20.841Z,99881.29
2023-05-25T16:51:20.642Z,99877.73
2023-05-25T16:54:26.318Z,99889.96
2023-05-25T16:57:24.670Z,99894.48
2023-05-25T17:00:30.764Z,99896.67
2023-05-25T17:03:36.988Z,99894.72
2023-05-25T17:06:44.053Z,99901.42
2023-05-25T17:09:50.123Z,99919.11
2023-05-25T17:12:56.838Z,99927.22
2023-05-25T17:16:02.971Z,99941.44
2023-05-25T17:19:10.136Z,99949.00
2023-05-25T17:22:16.585Z,99957.66
2023-05-25T17:25:22.862Z,99959.93
2023-05-25T17:28:28.097Z,99954.08
2023-05-25T17:31:36.408Z,99958.79
2023-05-25T17:34:42.723Z,99961.02
2023-05-25T17:37:49.327Z,99963.27
2023-05-25T17:40:54.529Z,99973.88
2023-05-25T17:44:01.389Z,99982.56
2023-05-25T17:47:10.726Z,99967.98
2023-05-25T17:50:16.123Z,99960.50
2023-05-25T17:53:21.338Z,99963.00
2023-05-25T17:56:29.073Z,99969.44
2023-05-25T17:59:35.070Z,99974.44
2023-05-25T18:02:41.999Z,99980.22
2023-05-25T18:05:48.628Z,99984.93
2023-05-25T18:08:55.278Z,99985.64
2023-05-25T18:12:01.904Z,99985.89
2023-05-25T18:15:08.818Z,99984.39
2023-05-25T18:18:14.888Z,99985.24
2023-05-25T18:21:21.432Z,99990.03
2023-05-25T18:24:27.553Z,99988.05
2023-05-25T18:27:32.706Z,99993.95
2023-05-25T18:30:34.702Z,99996.41
2023-05-25T18:33:34.048Z,99995.20
2023-05-25T18:36:40.156Z,99993.84
2023-05-25T18:39:46.461Z,99985.00
2023-05-25T18:42:52.091Z,99987.05
2023-05-25T18:45:58.876Z,99985.73
2023-05-25T18:49:03.406Z,99997.22
2023-05-25T18:52:09.040Z,99997.38
2023-05-25T18:55:14.157Z,100000.42
2023-05-25T18:58:19.556Z,99998.65
2023-05-25T19:01:24.814Z,100001.55
2023-05-25T19:04:30.484Z,100004.20
2023-05-25T19:07:37.668Z,99989.70
2023-05-25T19:10:44.457Z,99987.08
2023-05-25T19:13:50.244Z,99985.93
2023-05-25T19:16:56.832Z,99987.53
2023-05-25T19:20:03.772Z,99988.09
2023-05-25T19:23:09.801Z,99984.08
2023-05-25T19:26:15.438Z,99992.26
2023-05-25T19:29:22.041Z,99985.00
2023-05-25T19:32:29.040Z,99987.28
2023-05-25T19:35:34.798Z,99977.79
2023-05-25T19:38:41.753Z,99975.11
2023-05-25T19:41:45.915Z,99972.55
2023-05-25T19:44:52.187Z,99973.94
2023-05-25T19:47:59.793Z,99978.93
2023-05-25T19:51:05.702Z,99974.47
2023-05-25T19:54:11.709Z,99974.86
2023-05-25T19:57:20.284Z,99968.81
2023-05-25T20:00:27.366Z,99970.47
2023-05-25T20:03:34.844Z,99970.87
2023-05-25T20:06:40.917Z,99972.20
2023-05-25T20:09:39.482Z,99969.07
2023-05-25T20:12:31.815Z,99964.70
2023-05-25T20:15:37.087Z,99957.41
2023-05-25T20:18:42.652Z,99959.09
2023-05-25T20:21:47.699Z,99953.20
2023-05-25T20:24:53.860Z,99947.63
2023-05-25T20:27:59.743Z,99942.24
2023-05-25T20:31:06.095Z,99944.64
2023-05-25T20:34:11.833Z,99946.51
2023-05-25T20:37:18.685Z,99944.60
2023-05-25T20:40:24.494Z,99939.86
2023-05-25T20:43:31.020Z,99938.39
2023-05-25T20:46:36.996Z,99934.72
2023-05-25T20:49:42.771Z,99930.53
2023-05-25T20:52:48.358Z,99929.70
2023-05-25T20:55:55.394Z,99922.22
2023-05-25T20:59:01.803Z,99919.38
2023-05-25T21:02:07.207Z,99920.91
2023-05-25T21:05:14.348Z,99918.03
2023-05-25T21:08:19.895Z,99913.20
2023-05-25T21:11:25.214Z,99911.92
2023-05-25T21:14:31.329Z,99910.88
2023-05-25T21:17:37.952Z,99905.30
2023-05-25T21:20:44.793Z,99899.46
2023-05-25T21:23:51.096Z,99899.94
2023-05-25T21:26:57.617Z,99895.82
2023-05-25T21:30:04.361Z,99897.21
2023-05-25T21:33:10.995Z,99893.38
2023-05-25T21:36:16.524Z,99893.71
2023-05-25T21:39:22.129Z,99894.97
2023-05-25T21:42:28.220Z,99897.19
2023-05-25T21:45:34.678Z,99899.77
2023-05-25T21:48:41.330Z,99897.19
2023-05-25T21:51:46.961Z,99890.94
2023-05-25T21:54:51.659Z,99898.17
2023-05-25T21:57:57.334Z,99896.99
2023-05-25T22:01:04.456Z,99898.11
2023-05-25T22:04:10.798Z,99896.44
2023-05-25T22:07:15.716Z,99901.02
2023-05-25T22:10:22.503Z,99900.46
2023-05-25T22:13:29.165Z,99898.23
2023-05-25T22:16:35.431Z,99901.55
2023-05-25T22:19:43.205Z,99904.44
2023-05-25T22:22:49.740Z,99907.91
2023-05-25T22:25:54.156Z,99911.16
2023-05-25T22:29:00.485Z,99909.84
2023-05-25T22:32:06.132Z,99914.69
2023-05-25T22:35:12.472Z,99914.02
2023-05-25T22:38:18.472Z,99909.86
2023-05-25T22:41:23.122Z,99902.96
2023-05-25T22:44:30.029Z,99906.02
2023-05-25T22:47:35.975Z,99910.92
2023-05-25T22:50:41.901Z,99908.91
2023-05-25T22:53:47.948Z,99904.91
2023-05-25T22:56:47.095Z,99910.80
2023-05-25T22:59:53.857Z,99912.02
2023-05-25T23:02:53.813Z,99915.56
2023-05-25T23:06:00.305Z,99916.61
2023-05-25T23:09:06.879Z,99921.53
2023-05-25T23:12:12.274Z,99922.84
2023-05-25T23:15:18.772Z,99924.22
2023-05-25T23:18:23.701Z,99927.70
2023-05-25T23:21:29.549Z,99938.14
2023-05-25T23:24:35.851Z,99939.86
2023-05-25T23:27:42.026Z,99941.94
2023-05-25T23:30:47.761Z,99940.17
2023-05-25T23:33:54.139Z,99937.00
2023-05-25T23:37:00.825Z,99947.12
2023-05-25T23:40:05.642Z,99943.14
2023-05-25T23:43:10.788Z,99949.81
2023-05-25T23:46:16.356Z,99949.34
2023-05-25T23:49:22.112Z,99950.44
2023-05-25T23:52:28.566Z,99956.00
2023-05-25T23:55:35.302Z,99956.48
2023-05-25T23:58:33.885Z,99957.58
